createdAt,value
2022-10-09T00:01:16.948Z,5.23
2022-10-09T00:03:47.272Z,5.93
2022-10-09T00:06:18.247Z,6.60
2022-10-09T00:08:47.618Z,5.60
2022-10-09T00:11:17.807Z,7.17
2022-10-09T00:13:45.685Z,6.87
2022-10-09T00:16:15.464Z,6.10
2022-10-09T00:18:43.354Z,5.70
2022-10-09T00:21:19.269Z,6.43
2022-10-09T00:23:49.014Z,6.43
2022-10-09T00:26:16.661Z,6.80
2022-10-09T00:28:44.546Z,7.27
2022-10-09T00:31:12.865Z,7.03
2022-10-09T00:33:41.112Z,6.90
2022-10-09T00:36:10.610Z,6.03
2022-10-09T00:38:38.565Z,6.60
2022-10-09T00:41:08.186Z,6.90
2022-10-09T00:43:42.080Z,6.37
2022-10-09T00:46:18.514Z,7.27
2022-10-09T00:48:46.883Z,6.20
2022-10-09T00:51:14.667Z,6.10
2022-10-09T00:53:42.653Z,6.43
2022-10-09T00:56:11.815Z,5.40
2022-10-09T00:58:39.418Z,7.53
2022-10-09T01:01:07.321Z,7.17
2022-10-09T01:03:35.034Z,6.80
2022-10-09T01:06:12.892Z,7.23
2022-10-09T01:08:48.853Z,6.77
2022-10-09T01:11:27.552Z,7.30
2022-10-09T01:14:02.201Z,6.83
2022-10-09T01:16:35.306Z,7.37
2022-10-09T01:19:12.208Z,7.60
2022-10-09T01:21:44.123Z,7.60
2022-10-09T01:24:25.740Z,5.83
2022-10-09T01:27:03.436Z,6.30
2022-10-09T01:29:36.969Z,6.37
2022-10-09T01:32:06.597Z,6.50
2022-10-09T01:34:34.722Z,6.67
2022-10-09T01:37:03.260Z,6.43
2022-10-09T01:39:33.185Z,6.10
2022-10-09T01:42:03.009Z,6.33
2022-10-09T01:44:33.297Z,6.80
2022-10-09T01:47:02.013Z,5.70
2022-10-09T01:49:40.245Z,6.63
2022-10-09T01:52:19.349Z,6.03
2022-10-09T01:54:55.257Z,5.93
2022-10-09T01:57:30.265Z,6.10
2022-10-09T02:00:03.164Z,6.33
2022-10-09T02:02:31.059Z,6.60
2022-10-09T02:04:59.643Z,6.10
2022-10-09T02:07:28.202Z,5.30
2022-10-09T02:09:57.074Z,5.40
2022-10-09T02:12:28.901Z,5.87
2022-10-09T02:14:57.003Z,6.10
2022-10-09T02:17:30.502Z,6.00
2022-10-09T02:20:04.512Z,5.97
2022-10-09T02:22:34.351Z,6.00
2022-10-09T02:25:05.149Z,6.10
2022-10-09T02:27:35.074Z,6.10
2022-10-09T02:30:03.544Z,6.53
2022-10-09T02:32:31.189Z,5.90
2022-10-09T02:34:59.085Z,6.27
2022-10-09T02:37:26.817Z,5.97
2022-10-09T02:39:54.556Z,6.10
2022-10-09T02:42:22.269Z,5.40
2022-10-09T02:44:51.310Z,6.53
2022-10-09T02:47:19.054Z,6.80
2022-10-09T02:49:46.688Z,5.73
2022-10-09T02:52:16.717Z,6.03
2022-10-09T02:54:44.572Z,6.27
2022-10-09T02:57:12.228Z,6.10
2022-10-09T02:59:39.998Z,5.93
2022-10-09T03:02:09.211Z,6.00
2022-10-09T03:04:40.474Z,5.80
2022-10-09T03:07:08.099Z,5.43
2022-10-09T03:09:35.797Z,6.07
2022-10-09T03:12:03.501Z,5.13
2022-10-09T03:14:31.099Z,6.43
2022-10-09T03:16:59.290Z,5.47
2022-10-09T03:19:28.215Z,5.47
2022-10-09T03:21:55.808Z,5.60
2022-10-09T03:24:23.743Z,5.20
2022-10-09T03:26:51.662Z,5.80
2022-10-09T03:29:19.317Z,5.37
2022-10-09T03:31:52.233Z,5.30
2022-10-09T03:34:20.769Z,5.30
2022-10-09T03:36:50.211Z,5.90
2022-10-09T03:39:17.812Z,5.40
2022-10-09T03:41:45.489Z,5.77
2022-10-09T03:44:13.329Z,5.20
2022-10-09T03:46:41.123Z,5.20
2022-10-09T03:49:09.008Z,5.80
2022-10-09T03:51:36.683Z,5.13
2022-10-09T03:54:06.296Z,5.90
2022-10-09T03:56:33.961Z,5.13
2022-10-09T03:59:01.537Z,5.10
2022-10-09T04:01:29.402Z,5.57
2022-10-09T04:03:57.168Z,5.47
2022-10-09T04:06:24.814Z,5.50
2022-10-09T04:08:52.458Z,5.23
2022-10-09T04:11:21.500Z,5.30
2022-10-09T04:13:49.354Z,5.10
2022-10-09T04:16:17.033Z,4.70
2022-10-09T04:18:45.647Z,5.90
2022-10-09T04:21:13.509Z,5.20
2022-10-09T04:23:41.331Z,4.87
2022-10-09T04:26:09.119Z,4.70
2022-10-09T04:28:38.151Z,5.70
2022-10-09T04:31:06.441Z,5.27
2022-10-09T04:33:34.118Z,5.27
2022-10-09T04:36:02.119Z,5.83
2022-10-09T04:38:32.058Z,5.70
2022-10-09T04:41:01.123Z,5.67
2022-10-09T04:43:29.839Z,6.10
2022-10-09T04:45:59.205Z,5.50
2022-10-09T04:48:27.049Z,5.53
2022-10-09T04:50:54.679Z,5.60
2022-10-09T04:53:22.296Z,5.70
2022-10-09T04:55:49.959Z,5.30
2022-10-09T04:58:17.620Z,5.17
2022-10-09T05:00:47.025Z,5.33
2022-10-09T05:03:16.178Z,5.23
2022-10-09T05:05:43.887Z,5.50
2022-10-09T05:08:11.564Z,6.70
2022-10-09T05:10:39.479Z,5.43
2022-10-09T05:13:07.384Z,5.20
2022-10-09T05:15:38.077Z,4.97
2022-10-09T05:18:05.883Z,4.83
2022-10-09T05:20:35.104Z,5.43
2022-10-09T05:23:02.759Z,4.70
2022-10-09T05:25:30.465Z,4.73
2022-10-09T05:27:58.285Z,5.43
2022-10-09T05:30:25.905Z,5.03
2022-10-09T05:32:53.538Z,4.97
2022-10-09T05:35:21.146Z,5.43
2022-10-09T05:37:50.095Z,6.20
2022-10-09T05:40:29.105Z,5.47
2022-10-09T05:42:57.041Z,5.87
2022-10-09T05:45:24.671Z,5.70
2022-10-09T05:47:52.385Z,5.30
2022-10-09T05:50:20.106Z,5.30
2022-10-09T05:52:50.385Z,4.67
2022-10-09T05:55:18.352Z,4.90
2022-10-09T05:57:47.268Z,4.63
2022-10-09T06:00:15.630Z,4.63
2022-10-09T06:02:44.231Z,4.27
2022-10-09T06:05:12.062Z,3.60
2022-10-09T06:07:39.691Z,3.90
2022-10-09T06:10:09.650Z,3.80
2022-10-09T06:12:37.282Z,3.70
2022-10-09T06:15:05.401Z,3.43
2022-10-09T06:17:33.801Z,3.50
2022-10-09T06:20:01.533Z,3.00
2022-10-09T06:22:29.197Z,3.50
2022-10-09T06:24:56.832Z,3.57
2022-10-09T06:27:26.035Z,2.90
2022-10-09T06:29:55.990Z,3.70
2022-10-09T06:32:23.593Z,3.40
2022-10-09T06:34:52.070Z,2.97
2022-10-09T06:37:19.990Z,3.60
2022-10-09T06:39:47.680Z,3.43
2022-10-09T06:42:16.628Z,3.97
2022-10-09T06:44:45.735Z,3.63
2022-10-09T06:47:13.563Z,3.50
2022-10-09T06:49:41.205Z,4.17
2022-10-09T06:52:08.873Z,3.40
2022-10-09T06:54:36.756Z,3.23
2022-10-09T06:57:04.620Z,3.60
2022-10-09T06:59:32.197Z,3.60
2022-10-09T07:02:01.612Z,3.73
2022-10-09T07:04:29.368Z,3.70
2022-10-09T07:06:57.075Z,3.17
2022-10-09T07:09:24.652Z,3.47
2022-10-09T07:11:52.277Z,3.47
2022-10-09T07:14:19.992Z,3.20
2022-10-09T07:16:49.598Z,3.10
2022-10-09T07:19:19.724Z,2.73
2022-10-09T07:21:48.916Z,3.30
2022-10-09T07:24:17.611Z,2.90
2022-10-09T07:26:47.785Z,3.00
2022-10-09T07:29:17.003Z,3.00
2022-10-09T07:31:44.885Z,3.67
2022-10-09T07:34:12.713Z,2.83
2022-10-09T07:36:41.675Z,2.57
2022-10-09T07:39:09.772Z,2.40
2022-10-09T07:41:37.952Z,2.90
2022-10-09T07:44:05.743Z,2.20
2022-10-09T07:46:34.316Z,2.20
2022-10-09T07:49:02.379Z,2.07
2022-10-09T07:51:30.895Z,2.60
2022-10-09T07:54:01.803Z,2.20
2022-10-09T07:56:31.436Z,2.90
2022-10-09T07:59:00.899Z,2.20
2022-10-09T08:01:29.748Z,2.63
2022-10-09T08:03:58.299Z,2.47
2022-10-09T08:06:26.271Z,2.40
2022-10-09T08:08:55.861Z,2.60
2022-10-09T08:11:27.196Z,2.20
2022-10-09T08:13:55.174Z,2.60
2022-10-09T08:16:24.272Z,2.83
2022-10-09T08:18:55.983Z,2.80
2022-10-09T08:21:23.812Z,2.47
2022-10-09T08:23:54.315Z,1.90
2022-10-09T08:26:25.643Z,2.53
2022-10-09T08:28:54.788Z,1.83
2022-10-09T08:31:23.547Z,2.10
2022-10-09T08:33:53.458Z,2.67
2022-10-09T08:36:21.147Z,2.37
2022-10-09T08:38:49.873Z,2.07
2022-10-09T08:41:40.659Z,2.50
2022-10-09T08:44:14.856Z,2.50
2022-10-09T08:46:52.486Z,1.97
2022-10-09T08:49:27.014Z,2.50
2022-10-09T08:51:57.881Z,3.03
2022-10-09T08:54:34.206Z,3.37
2022-10-09T08:57:06.313Z,2.70
2022-10-09T08:59:35.036Z,2.40
2022-10-09T09:02:16.835Z,2.07
2022-10-09T09:04:56.351Z,3.20
2022-10-09T09:07:35.483Z,2.27
2022-10-09T09:10:11.686Z,2.83
2022-10-09T09:12:49.881Z,2.80
2022-10-09T09:15:29.412Z,2.67
2022-10-09T09:18:10.832Z,2.30
2022-10-09T09:20:48.513Z,1.93
2022-10-09T09:23:17.367Z,2.00
2022-10-09T09:25:46.707Z,2.50
2022-10-09T09:28:21.186Z,2.60
2022-10-09T09:30:52.628Z,2.07
2022-10-09T09:33:25.646Z,2.70
2022-10-09T09:36:05.395Z,2.67
2022-10-09T09:38:33.252Z,2.27
2022-10-09T09:41:00.989Z,2.50
2022-10-09T09:43:29.943Z,2.17
2022-10-09T09:45:59.837Z,2.50
2022-10-09T09:48:34.484Z,2.27
2022-10-09T09:51:26.959Z,2.30
2022-10-09T09:53:55.205Z,2.40
2022-10-09T09:56:53.362Z,2.53
2022-10-09T09:59:36.384Z,2.30
2022-10-09T10:02:13.516Z,2.33
2022-10-09T10:04:52.530Z,2.10
2022-10-09T10:07:31.743Z,2.17
2022-10-09T10:10:06.875Z,2.00
2022-10-09T10:12:34.703Z,2.27
2022-10-09T10:15:03.730Z,1.80
2022-10-09T10:17:33.455Z,1.70
2022-10-09T10:20:06.932Z,1.83
2022-10-09T10:22:35.049Z,1.70
2022-10-09T10:25:03.035Z,1.70
2022-10-09T10:27:36.395Z,2.10
2022-10-09T10:30:08.138Z,1.90
2022-10-09T10:32:39.790Z,1.77
2022-10-09T10:35:14.694Z,1.90
2022-10-09T10:37:47.477Z,1.90
2022-10-09T10:40:21.101Z,1.93
2022-10-09T10:43:00.033Z,2.30
2022-10-09T10:45:35.373Z,2.10
2022-10-09T10:48:05.520Z,1.90
2022-10-09T10:50:39.417Z,1.77
2022-10-09T10:53:16.313Z,1.60
2022-10-09T10:55:53.001Z,1.80
2022-10-09T10:58:27.388Z,1.90
2022-10-09T11:01:12.920Z,2.07
2022-10-09T11:04:02.503Z,1.90
2022-10-09T11:06:39.083Z,2.03
2022-10-09T11:09:16.184Z,1.90
2022-10-09T11:11:52.874Z,1.80
2022-10-09T11:14:36.592Z,1.60
2022-10-09T11:17:17.707Z,1.63
2022-10-09T11:20:03.089Z,1.40
2022-10-09T11:22:43.308Z,2.13
2022-10-09T11:25:27.972Z,2.00
2022-10-09T11:27:59.860Z,2.00
2022-10-09T11:30:31.459Z,2.00
2022-10-09T11:33:07.460Z,1.70
2022-10-09T11:35:41.539Z,2.07
2022-10-09T11:38:34.315Z,2.00
2022-10-09T11:41:05.109Z,1.73
2022-10-09T11:44:05.968Z,1.83
2022-10-09T11:46:45.500Z,1.60
2022-10-09T11:49:23.878Z,1.80
2022-10-09T11:51:58.137Z,1.90
2022-10-09T11:54:27.444Z,2.37
2022-10-09T11:56:57.853Z,1.73
2022-10-09T11:59:30.281Z,2.00
2022-10-09T12:02:02.109Z,2.83
2022-10-09T12:07:34.099Z,2.10
2022-10-09T12:10:05.816Z,1.83
2022-10-09T12:12:34.693Z,1.90
2022-10-09T12:15:24.190Z,1.90
2022-10-09T12:17:52.068Z,2.20
2022-10-09T12:20:24.956Z,1.50
2022-10-09T12:23:21.706Z,2.10
2022-10-09T12:25:46.736Z,1.90
2022-10-09T12:28:26.902Z,2.10
2022-10-09T12:30:56.277Z,1.77
2022-10-09T12:33:27.458Z,1.90
2022-10-09T12:36:05.903Z,1.37
2022-10-09T12:38:33.942Z,1.67
2022-10-09T12:41:06.030Z,1.60
2022-10-09T12:43:36.274Z,1.30
2022-10-09T12:46:04.376Z,1.40
2022-10-09T12:48:37.896Z,1.30
2022-10-09T12:51:16.206Z,2.07
2022-10-09T12:53:48.997Z,1.60
2022-10-09T12:56:21.902Z,1.20
2022-10-09T12:58:50.823Z,1.60
2022-10-09T13:01:20.919Z,1.50
2022-10-09T13:03:55.513Z,1.80
2022-10-09T13:06:27.212Z,1.43
2022-10-09T13:08:57.737Z,1.20
2022-10-09T13:11:32.544Z,1.10
2022-10-09T13:14:00.744Z,1.30
2022-10-09T13:16:39.533Z,1.40
2022-10-09T13:19:23.352Z,1.60
2022-10-09T13:22:17.141Z,1.50
2022-10-09T13:24:45.140Z,1.40
2022-10-09T13:27:14.505Z,1.70
2022-10-09T13:29:43.089Z,1.60
2022-10-09T13:32:13.308Z,1.30
2022-10-09T13:34:41.124Z,1.43
2022-10-09T13:37:11.538Z,1.30
2022-10-09T13:39:39.260Z,1.00
2022-10-09T13:42:07.487Z,1.33
2022-10-09T13:44:35.120Z,1.10
2022-10-09T13:47:02.869Z,1.50
2022-10-09T13:49:30.495Z,1.17
2022-10-09T13:51:58.093Z,1.40
2022-10-09T13:54:29.639Z,1.30
2022-10-09T13:56:58.692Z,1.43
2022-10-09T13:59:26.641Z,1.00
2022-10-09T14:01:57.268Z,1.03
2022-10-09T14:04:25.060Z,1.23
2022-10-09T14:06:52.792Z,1.20
2022-10-09T14:09:20.700Z,1.50
2022-10-09T14:11:49.724Z,1.20
2022-10-09T14:14:17.439Z,1.10
2022-10-09T14:16:45.096Z,1.10
2022-10-09T14:19:12.717Z,1.30
2022-10-09T14:21:40.707Z,1.00
2022-10-09T14:24:10.013Z,1.20
2022-10-09T14:26:38.982Z,1.20
2022-10-09T14:29:07.879Z,1.13
2022-10-09T14:31:35.606Z,1.60
2022-10-09T14:34:03.545Z,1.30
2022-10-09T14:36:31.584Z,1.67
2022-10-09T14:39:00.817Z,1.20
2022-10-09T14:41:30.614Z,1.30
2022-10-09T14:44:00.884Z,1.30
2022-10-09T14:46:33.756Z,0.93
2022-10-09T14:49:07.042Z,1.20
2022-10-09T14:51:38.444Z,1.20
2022-10-09T14:54:07.002Z,1.10
2022-10-09T14:56:35.578Z,1.20
2022-10-09T14:59:03.568Z,1.17
2022-10-09T15:01:33.354Z,1.33
2022-10-09T15:04:01.628Z,1.43
2022-10-09T15:06:29.800Z,1.30
2022-10-09T15:09:03.197Z,1.37
2022-10-09T15:11:33.509Z,1.57
2022-10-09T15:14:01.121Z,1.00
2022-10-09T15:16:28.938Z,1.10
2022-10-09T15:18:58.306Z,1.00
2022-10-09T15:21:27.694Z,1.20
2022-10-09T15:23:56.448Z,1.10
2022-10-09T15:26:24.803Z,1.53
2022-10-09T15:28:52.463Z,1.40
2022-10-09T15:31:23.986Z,1.37
2022-10-09T15:33:52.184Z,1.23
2022-10-09T15:36:21.460Z,1.00
2022-10-09T15:38:49.471Z,1.30
2022-10-09T15:41:24.059Z,1.07
2022-10-09T15:43:55.295Z,1.30
2022-10-09T15:46:23.090Z,1.13
2022-10-09T15:48:51.671Z,1.20
2022-10-09T15:51:27.154Z,1.10
2022-10-09T15:53:56.321Z,1.23
2022-10-09T15:56:33.813Z,1.20
2022-10-09T15:59:04.012Z,1.17
2022-10-09T16:01:33.689Z,1.50
2022-10-09T16:04:05.801Z,1.20
2022-10-09T16:06:39.166Z,1.60
2022-10-09T16:09:13.722Z,1.30
2022-10-09T16:11:49.030Z,1.37
2022-10-09T16:14:22.730Z,1.40
2022-10-09T16:16:51.966Z,1.20
2022-10-09T16:19:20.228Z,1.40
2022-10-09T16:22:00.513Z,1.10
2022-10-09T16:24:28.650Z,1.27
2022-10-09T16:26:56.564Z,1.43
2022-10-09T16:29:36.216Z,1.27
2022-10-09T16:32:04.669Z,1.20
2022-10-09T16:34:35.806Z,1.50
2022-10-09T16:37:07.877Z,1.47
2022-10-09T16:39:38.542Z,1.30
2022-10-09T16:42:09.564Z,1.60
2022-10-09T16:44:41.366Z,1.40
2022-10-09T16:47:15.614Z,1.23
2022-10-09T16:49:53.915Z,1.60
2022-10-09T16:52:23.678Z,1.40
2022-10-09T16:54:54.942Z,1.40
2022-10-09T16:57:27.553Z,1.63
2022-10-09T16:59:55.315Z,1.80
2022-10-09T17:02:23.093Z,1.43
2022-10-09T17:04:50.890Z,1.40
2022-10-09T17:07:22.963Z,1.60
2022-10-09T17:09:53.607Z,1.63
2022-10-09T17:12:24.073Z,1.50
2022-10-09T17:14:51.942Z,1.70
2022-10-09T17:17:19.629Z,1.80
2022-10-09T17:19:47.972Z,1.90
2022-10-09T17:22:15.965Z,1.93
2022-10-09T17:24:44.187Z,1.70
2022-10-09T17:27:13.342Z,1.90
2022-10-09T17:29:41.763Z,2.60
2022-10-09T17:32:09.779Z,2.57
2022-10-09T17:34:45.788Z,2.30
2022-10-09T17:37:14.655Z,2.30
2022-10-09T17:39:45.565Z,2.40
2022-10-09T17:42:16.623Z,2.37
2022-10-09T17:44:46.970Z,2.80
2022-10-09T17:47:16.123Z,3.60
2022-10-09T17:49:45.630Z,2.40
2022-10-09T17:52:13.994Z,2.40
2022-10-09T17:54:42.377Z,2.53
2022-10-09T17:57:15.011Z,2.57
2022-10-09T17:59:46.515Z,2.47
2022-10-09T18:02:33.963Z,2.70
2022-10-09T18:05:02.204Z,2.60
2022-10-09T18:07:29.979Z,2.50
2022-10-09T18:10:09.329Z,2.07
2022-10-09T18:12:41.146Z,2.70
2022-10-09T18:15:16.785Z,2.77
2022-10-09T18:17:51.770Z,2.17
2022-10-09T18:20:19.921Z,2.80
2022-10-09T18:22:47.720Z,2.77
2022-10-09T18:25:16.437Z,2.30
2022-10-09T18:27:44.118Z,2.50
2022-10-09T18:30:16.827Z,2.10
2022-10-09T18:36:42.289Z,2.33
2022-10-09T18:39:14.574Z,2.63
2022-10-09T18:41:43.064Z,2.77
2022-10-09T18:44:17.380Z,2.53
2022-10-09T18:46:49.282Z,2.63
2022-10-09T18:49:20.086Z,2.70
2022-10-09T18:51:49.728Z,2.83
2022-10-09T18:54:20.433Z,2.60
2022-10-09T18:56:48.539Z,2.77
2022-10-09T18:59:19.299Z,2.87
2022-10-09T19:01:48.784Z,3.67
2022-10-09T19:04:16.738Z,2.73
2022-10-09T19:06:44.428Z,2.30
2022-10-09T19:09:12.247Z,2.90
2022-10-09T19:11:40.211Z,2.33
2022-10-09T19:14:07.803Z,2.57
2022-10-09T19:16:36.212Z,2.63
2022-10-09T19:19:05.396Z,2.70
2022-10-09T19:21:33.167Z,2.73
2022-10-09T19:24:03.388Z,2.63
2022-10-09T19:26:32.732Z,2.80
2022-10-09T19:29:00.992Z,3.53
2022-10-09T19:31:28.606Z,3.13
2022-10-09T19:33:56.279Z,2.50
2022-10-09T19:36:26.668Z,2.57
2022-10-09T19:38:54.839Z,2.60
2022-10-09T19:41:22.469Z,2.70
2022-10-09T19:43:50.088Z,3.10
2022-10-09T19:46:20.733Z,2.70
2022-10-09T19:48:48.547Z,2.80
2022-10-09T19:51:18.282Z,3.17
2022-10-09T19:53:51.990Z,3.73
2022-10-09T19:56:21.858Z,3.00
2022-10-09T19:58:52.480Z,2.70
2022-10-09T20:01:21.986Z,2.73
2022-10-09T20:03:54.490Z,3.17
2022-10-09T20:06:25.576Z,3.23
2022-10-09T20:08:57.473Z,2.83
2022-10-09T20:11:26.521Z,2.87
2022-10-09T20:13:56.650Z,2.53
2022-10-09T20:16:25.681Z,2.90
2022-10-09T20:18:55.161Z,2.90
2022-10-09T20:21:23.838Z,2.63
2022-10-09T20:23:51.720Z,2.70
2022-10-09T20:26:22.131Z,2.70
2022-10-09T20:28:50.666Z,3.17
2022-10-09T20:31:21.024Z,3.00
2022-10-09T20:33:50.184Z,3.00
2022-10-09T20:36:24.333Z,2.87
2022-10-09T20:38:53.496Z,2.97
2022-10-09T20:41:22.780Z,3.30
2022-10-09T20:43:52.029Z,2.67
2022-10-09T20:46:21.182Z,2.80
2022-10-09T20:48:49.653Z,2.93
2022-10-09T20:51:17.548Z,3.10
2022-10-09T20:53:45.211Z,3.10
2022-10-09T20:56:15.134Z,3.63
2022-10-09T20:58:47.037Z,3.30
2022-10-09T21:01:16.674Z,2.90
2022-10-09T21:03:45.045Z,3.50
2022-10-09T21:06:15.434Z,3.53
2022-10-09T21:08:43.163Z,3.30
2022-10-09T21:11:12.935Z,3.50
2022-10-09T21:13:41.663Z,3.10
2022-10-09T21:16:12.910Z,3.33
2022-10-09T21:18:42.574Z,3.47
2022-10-09T21:21:12.505Z,2.90
2022-10-09T21:23:40.769Z,3.10
2022-10-09T21:26:12.584Z,3.20
2022-10-09T21:28:40.264Z,2.87
2022-10-09T21:31:11.221Z,3.00
2022-10-09T21:33:39.034Z,3.63
2022-10-09T21:36:11.228Z,3.23
2022-10-09T21:38:39.084Z,3.40
2022-10-09T21:41:06.763Z,3.17
2022-10-09T21:43:34.445Z,3.30
2022-10-09T21:46:02.192Z,3.00
2022-10-09T21:48:31.408Z,3.30
2022-10-09T21:50:59.013Z,3.20
2022-10-09T21:53:26.815Z,3.00
2022-10-09T21:55:54.431Z,2.90
2022-10-09T21:58:24.237Z,3.00
2022-10-09T22:00:57.096Z,3.00
2022-10-09T22:03:25.656Z,3.40
2022-10-09T22:05:54.941Z,2.77
2022-10-09T22:08:23.137Z,2.73
2022-10-09T22:10:51.360Z,2.57
2022-10-09T22:13:19.714Z,2.90
2022-10-09T22:15:50.948Z,3.27
2022-10-09T22:18:19.125Z,3.33
2022-10-09T22:20:49.348Z,3.40
2022-10-09T22:23:19.365Z,2.70
2022-10-09T22:25:57.088Z,2.60
2022-10-09T22:28:24.987Z,3.40
2022-10-09T22:31:01.928Z,3.10
2022-10-09T22:33:29.818Z,3.27
2022-10-09T22:36:06.995Z,2.97
2022-10-09T22:38:37.126Z,3.00
2022-10-09T22:41:06.809Z,3.30
2022-10-09T22:43:34.728Z,3.00
2022-10-09T22:46:05.917Z,2.70
2022-10-09T22:48:35.107Z,2.90
2022-10-09T22:51:04.589Z,2.57
2022-10-09T22:53:32.376Z,2.73
2022-10-09T22:56:01.609Z,3.13
2022-10-09T22:58:29.381Z,3.27
2022-10-09T23:00:57.252Z,2.90
2022-10-09T23:03:24.933Z,3.30
2022-10-09T23:05:52.616Z,3.20
2022-10-09T23:08:20.132Z,3.20
2022-10-09T23:10:47.745Z,3.07
2022-10-09T23:13:16.705Z,3.10
2022-10-09T23:15:44.494Z,3.00
2022-10-09T23:18:12.145Z,3.10
2022-10-09T23:20:39.800Z,3.00
2022-10-09T23:23:07.746Z,2.33
2022-10-09T23:25:35.432Z,2.77
2022-10-09T23:28:03.144Z,3.30
2022-10-09T23:30:32.846Z,2.90
2022-10-09T23:33:00.419Z,2.40
2022-10-09T23:35:28.501Z,3.10
2022-10-09T23:37:56.439Z,2.53
2022-10-09T23:40:24.164Z,2.87
2022-10-09T23:42:52.319Z,4.73
2022-10-09T23:45:20.242Z,2.90
2022-10-09T23:47:49.151Z,3.40
2022-10-09T23:50:16.918Z,2.73
2022-10-09T23:52:44.617Z,2.80
2022-10-09T23:55:12.284Z,3.10
2022-10-09T23:57:40.001Z,3.13
